Acme, WA (98220)

8:20 PM PDT on August 30, 2015 (GMT -0700)
Sudden Valley/Lake Whatcom | | Change Station
CLOSE
Current Station
Personal Weather Station
Location: Bellingham, WA
Elevation: 648 ft
Nearby Weather Stations

Elev 648 ft 48.70 °N, 122.32 °W | Updated 12 seconds ago

Overcast
Overcast
57.4 °F
Feels Like 57.4 °F
N
2.0
Wind Variable Wind from SW
Gusts 2.0 mph

Today
High -- | Low -- °F
--% Chance of Precip.
Yesterday
High -- | Low -- °F
Precip. -- in
6:22 AM 7:55 PM
Full, 97% visible
Pressure 29.93 in
Visibility 10.0 miles
Clouds Mostly Cloudy 6500 ft
Overcast 9500 ft
Dew Point 57 °F
Humidity 97%
Rainfall 0.46 in
Snow Depth Not available.
UV 0 out of 12
Pollen .50 out of 12
Air Quality Not available.
Flu Activity Not available.
METAR KBLI 310253Z 17005KT 10SM BKN065 OVC095 18/13 A2991 RMK AO2 SLP135 T01780128 $
Pressure 29.93 in
Visibility 10.0 miles
Clouds Mostly Cloudy 6500 ft
Overcast 9500 ft
Dew Point 57 °F
Humidity 97%
Rainfall 0.46 in
Snow Depth Not available.
UV 0 out of 12
Pollen .50 out of 12
Air Quality Not available.
Flu Activity Not available.
METAR KBLI 310253Z 17005KT 10SM BKN065 OVC095 18/13 A2991 RMK AO2 SLP135 T01780128 $

10-Day Weather Forecast

×

Almanac

Astronomy

Aug. 30, 2015 Rise Set
Actual Time
Civil Twilight
Nautical Twilight
Astronomical Twilight
Moon
Length of Visible Light
Length of Day
Tomorrow will be .
, % of the Moon is Illuminated

Today's Extremes

State Highs State Lows

Community

WunderPhotos

Upload Photos

1,851,167 photos uploaded!

WunderBlogs® & News

Nearby

Air Quality

  Air Quality AQ Index Pollutant
Not available.

Snow Depth

Station Depth Elevation

Earthquake Activity

City Distance Mag. Time & Date
Minimum magnitude displayed is 2.5.

Coastal Water Temperatures

Place Temperature

Stations

Nearby Weather Stations

Station Location Temp. Windchill Dew Point Humidity Wind Precip. Elev Updated Type